Time;durP1;ratioP1;P1;durP2;ratioP2;P2;SDS_P1;SDS_P2;PMS_P1;PMS_P2;Temp;Humidity;BMP_temperature;BMP_pressure;BME280_temperature;BME280_humidity;BME280_pressure;Samples;Min_cycle;Max_cycle;Signal;HPM_P1;HPM_P2
2022/07/21 00:00:15;;;;;;;60.45;33.65;;;27.00;99.90;;;;;;5035473;28;20037;-67
2022/07/21 00:02:42;;;;;;;55.55;34.78;;;27.10;99.90;;;;;;5035771;28;20485;-67
2022/07/21 00:05:09;;;;;;;49.65;33.13;;;27.10;99.90;;;;;;5035659;28;20042;-68
2022/07/21 00:07:35;;;;;;;48.70;31.98;;;27.00;99.90;;;;;;5035541;28;20029;-67
2022/07/21 00:10:03;;;;;;;47.08;32.42;;;27.00;99.90;;;;;;5035438;28;20113;-66
2022/07/21 00:12:29;;;;;;;55.67;31.83;;;26.90;99.90;;;;;;5038101;28;20022;-67
2022/07/21 00:14:56;;;;;;;46.58;31.40;;;26.90;99.90;;;;;;5046510;28;20045;-67
2022/07/21 00:17:22;;;;;;;51.47;32.50;;;27.00;99.90;;;;;;5055312;28;20017;-67
2022/07/21 00:19:49;;;;;;;61.28;33.20;;;27.00;99.90;;;;;;5055383;28;20040;-67
2022/07/21 00:22:15;;;;;;;52.53;32.67;;;27.10;99.90;;;;;;5055334;28;20021;-67
2022/07/21 00:24:42;;;;;;;50.22;33.35;;;27.20;99.90;;;;;;5055252;28;20025;-67
2022/07/21 00:27:09;;;;;;;47.47;33.30;;;27.20;99.90;;;;;;5055311;28;20075;-67
2022/07/21 00:29:35;;;;;;;53.30;35.42;;;27.30;99.90;;;;;;5055133;28;20489;-67
2022/07/21 00:32:03;;;;;;;55.75;35.55;;;27.40;99.90;;;;;;5050542;28;20378;-67
2022/07/21 00:34:30;;;;;;;65.63;36.13;;;27.40;99.90;;;;;;5034214;28;20057;-67
2022/07/21 00:36:57;;;;;;;51.35;33.58;;;27.60;99.90;;;;;;5034215;28;20474;-67
2022/07/21 00:39:24;;;;;;;55.50;38.78;;;27.60;99.90;;;;;;5034021;28;20060;-67
2022/07/21 00:41:51;;;;;;;62.40;39.42;;;27.60;99.90;;;;;;5034880;28;20448;-67
2022/07/21 00:44:24;;;;;;;70.80;41.45;;;27.60;99.90;;;;;;5034027;28;20035;-66
2022/07/21 00:46:51;;;;;;;83.22;50.63;;;27.50;99.90;;;;;;5034830;28;20021;-67
2022/07/21 00:49:18;;;;;;;66.20;41.53;;;27.50;99.90;;;;;;5034891;28;20026;-67
2022/07/21 00:51:45;;;;;;;58.75;38.90;;;27.40;99.90;;;;;;5034817;28;20060;-67
2022/07/21 00:54:14;;;;;;;62.22;40.75;;;27.40;99.90;;;;;;5034455;28;20025;-67
2022/07/21 00:56:41;;;;;;;67.45;42.05;;;27.40;99.90;;;;;;5034730;28;20017;-66
2022/07/21 00:59:08;;;;;;;66.68;38.85;;;27.50;99.90;;;;;;5034486;28;20047;-66
2022/07/21 01:01:35;;;;;;;63.33;42.58;;;27.50;99.90;;;;;;5034503;28;20021;-66
2022/07/21 01:04:02;;;;;;;88.18;61.63;;;27.50;99.90;;;;;;5034632;28;20100;-66
2022/07/21 01:06:29;;;;;;;94.93;60.60;;;27.40;99.90;;;;;;5034476;28;20021;-66
2022/07/21 01:08:56;;;;;;;134.73;92.45;;;27.40;99.90;;;;;;5034216;28;20363;-67
2022/07/21 01:11:25;;;;;;;189.07;142.32;;;27.50;99.90;;;;;;5034599;28;20478;-66
2022/07/21 01:13:52;;;;;;;214.98;152.60;;;27.50;99.90;;;;;;5034324;28;20033;-67
2022/07/21 01:16:18;;;;;;;222.57;146.02;;;27.50;99.90;;;;;;5034033;28;20474;-66
2022/07/21 01:18:45;;;;;;;84.65;51.10;;;27.50;99.90;;;;;;5034363;28;20135;-67
2022/07/21 01:21:29;;;;;;;110.68;67.90;;;27.60;99.90;;;;;;5034356;28;20024;-66
2022/07/21 01:23:56;;;;;;;80.47;52.53;;;27.70;99.90;;;;;;5034427;28;20026;-66
2022/07/21 01:26:23;;;;;;;71.43;43.17;;;27.70;99.90;;;;;;5034140;28;20390;-67
2022/07/21 01:28:49;;;;;;;75.82;46.00;;;27.80;99.90;;;;;;5039212;28;20021;-67
2022/07/21 01:31:16;;;;;;;82.90;48.78;;;27.90;99.90;;;;;;5049816;28;20044;-66
2022/07/21 01:33:42;;;;;;;88.65;55.38;;;28.00;99.90;;;;;;5053985;28;20025;-67
2022/07/21 01:36:09;;;;;;;79.63;47.80;;;28.10;99.90;;;;;;5053712;28;20540;-67
2022/07/21 01:43:34;;;;;;;62.30;41.92;;;28.40;99.90;;;;;;5053598;28;20028;-68
2022/07/21 01:46:01;;;;;;;69.82;44.75;;;28.60;99.90;;;;;;5053963;28;20021;-67
2022/07/21 01:48:28;;;;;;;64.28;39.95;;;28.60;99.90;;;;;;5053883;28;20032;-66
2022/07/21 01:50:54;;;;;;;71.95;51.45;;;28.80;99.90;;;;;;5053797;28;20104;-67
2022/07/21 01:53:21;;;;;;;106.90;71.35;;;28.80;99.90;;;;;;5053768;28;20029;-66
2022/07/21 01:55:47;;;;;;;88.15;62.75;;;28.80;99.90;;;;;;5053539;28;20426;-66
2022/07/21 01:58:14;;;;;;;61.53;43.13;;;28.90;99.90;;;;;;5053875;28;20025;-66
2022/07/21 02:00:40;;;;;;;69.72;46.10;;;28.90;99.90;;;;;;5053471;28;20438;-67
2022/07/21 02:03:07;;;;;;;66.50;42.20;;;28.90;99.90;;;;;;5053606;28;20119;-67
2022/07/21 02:05:33;;;;;;;63.15;42.65;;;28.90;99.90;;;;;;5053294;28;20433;-67
2022/07/21 02:08:00;;;;;;;67.07;43.25;;;28.90;99.90;;;;;;5053511;28;20024;-67
2022/07/21 02:10:27;;;;;;;66.53;41.75;;;29.00;99.90;;;;;;5053534;28;20073;-68
2022/07/21 02:12:53;;;;;;;59.53;42.90;;;29.10;99.90;;;;;;5053405;28;20226;-68
2022/07/21 02:15:20;;;;;;;55.63;37.25;;;29.00;99.90;;;;;;5053490;28;20021;-68
2022/07/21 02:17:46;;;;;;;54.35;36.15;;;29.10;99.90;;;;;;5053457;28;20021;-67
2022/07/21 02:20:13;;;;;;;58.85;41.25;;;29.10;99.90;;;;;;5053392;28;20048;-67
2022/07/21 02:22:40;;;;;;;59.15;41.13;;;29.20;99.90;;;;;;5053441;28;20167;-67
2022/07/21 02:25:07;;;;;;;53.08;37.80;;;29.30;99.90;;;;;;5050036;28;20052;-67
2022/07/21 02:27:33;;;;;;;52.92;34.65;;;29.50;99.90;;;;;;5045090;28;20017;-67
2022/07/21 02:30:00;;;;;;;54.35;36.03;;;29.50;99.90;;;;;;5054799;28;20087;-67
2022/07/21 02:32:26;;;;;;;57.88;36.20;;;29.60;99.90;;;;;;5054351;28;20037;-67
2022/07/21 02:34:53;;;;;;;59.83;39.90;;;29.60;99.90;;;;;;5053949;28;20476;-67
2022/07/21 02:37:20;;;;;;;56.97;38.35;;;29.60;99.90;;;;;;5053755;28;20024;-67
2022/07/21 02:39:46;;;;;;;51.50;36.85;;;29.50;99.90;;;;;;5053968;28;20021;-67
2022/07/21 02:42:13;;;;;;;61.35;37.00;;;29.50;99.90;;;;;;5053963;28;20086;-67
2022/07/21 02:44:39;;;;;;;53.42;36.88;;;29.50;99.90;;;;;;5053932;28;20028;-67
2022/07/21 02:47:06;;;;;;;56.38;37.97;;;29.50;99.90;;;;;;5053867;28;20381;-67
2022/07/21 02:49:32;;;;;;;51.50;36.63;;;29.40;99.90;;;;;;5053709;28;20017;-67
2022/07/21 02:51:59;;;;;;;59.30;38.63;;;29.40;99.90;;;;;;5053590;28;20021;-67
2022/07/21 02:54:25;;;;;;;58.10;39.55;;;29.40;99.90;;;;;;5052867;28;20078;-67
2022/07/21 02:56:52;;;;;;;57.38;38.53;;;29.40;99.90;;;;;;5053173;28;20025;-67
2022/07/21 02:59:19;;;;;;;57.55;36.33;;;29.50;99.90;;;;;;5052830;28;20044;-67
2022/07/21 03:01:45;;;;;;;59.30;37.40;;;29.50;99.90;;;;;;5053042;28;20374;-66
2022/07/21 03:04:12;;;;;;;53.55;36.38;;;29.50;99.90;;;;;;5053054;28;20048;-67
2022/07/21 03:06:39;;;;;;;54.90;36.17;;;29.60;99.90;;;;;;5052774;28;20079;-67
2022/07/21 03:09:06;;;;;;;54.65;34.83;;;29.60;99.90;;;;;;5056099;28;20436;-67
2022/07/21 03:11:33;;;;;;;46.03;33.22;;;29.70;99.90;;;;;;5055313;28;20389;-70
2022/07/21 03:13:59;;;;;;;48.47;32.75;;;30.00;99.90;;;;;;5056339;28;20408;-68
2022/07/21 03:16:26;;;;;;;45.30;29.95;;;30.00;99.90;;;;;;5056362;28;20108;-68
2022/07/21 03:18:53;;;;;;;40.35;30.10;;;30.00;99.90;;;;;;5056426;28;20037;-68
2022/07/21 03:21:19;;;;;;;41.58;29.70;;;30.00;99.90;;;;;;5056116;28;20090;-68
2022/07/21 03:23:46;;;;;;;49.45;36.58;;;30.00;99.90;;;;;;5056280;28;20419;-68
2022/07/21 03:26:14;;;;;;;50.97;33.58;;;30.10;99.90;;;;;;5056254;28;20382;-68
2022/07/21 03:28:41;;;;;;;43.15;31.25;;;30.30;99.90;;;;;;5055961;28;20029;-68
2022/07/21 03:31:08;;;;;;;39.03;28.17;;;30.40;99.90;;;;;;5056200;28;20025;-68
2022/07/21 03:33:35;;;;;;;47.00;27.30;;;30.30;99.90;;;;;;5056074;28;20496;-68
2022/07/21 03:36:02;;;;;;;38.17;27.38;;;30.30;99.90;;;;;;5055657;28;20111;-68
2022/07/21 03:38:29;;;;;;;40.10;24.92;;;30.30;99.90;;;;;;5055879;28;20039;-68
2022/07/21 03:40:56;;;;;;;41.28;25.13;;;30.30;99.90;;;;;;5056063;28;20017;-68
2022/07/21 03:43:22;;;;;;;37.95;24.17;;;30.40;99.90;;;;;;5055863;28;20378;-68
2022/07/21 03:45:49;;;;;;;33.22;23.85;;;30.60;99.90;;;;;;5055882;28;20486;-68
2022/07/21 03:48:15;;;;;;;29.95;22.92;;;30.70;99.90;;;;;;5055728;28;20477;-68
2022/07/21 03:50:43;;;;;;;39.90;24.35;;;30.80;99.90;;;;;;5055692;28;20021;-68
2022/07/21 03:53:10;;;;;;;37.25;26.52;;;31.00;99.90;;;;;;5056020;28;20021;-68
2022/07/21 03:55:36;;;;;;;33.72;24.42;;;31.00;99.90;;;;;;5055850;28;20025;-68
2022/07/21 03:58:06;;;;;;;35.85;23.52;;;31.00;99.90;;;;;;5055649;28;20049;-68
2022/07/21 04:00:38;;;;;;;28.00;21.33;;;31.00;99.90;;;;;;5055509;28;20037;-68
2022/07/21 04:03:06;;;;;;;32.60;22.95;;;31.00;99.90;;;;;;5055611;28;20017;-68
2022/07/21 04:05:34;;;;;;;32.05;22.80;;;31.10;99.90;;;;;;5055272;28;20366;-68
2022/07/21 04:08:01;;;;;;;35.08;23.02;;;31.20;99.90;;;;;;5055540;28;20021;-68
2022/07/21 04:10:30;;;;;;;30.50;23.25;;;31.20;99.90;;;;;;5055436;28;20027;-68
2022/07/21 04:13:00;;;;;;;35.40;22.73;;;31.30;99.90;;;;;;5055220;28;20104;-68
2022/07/21 04:15:27;;;;;;;30.60;22.88;;;31.30;99.90;;;;;;5055318;28;20025;-68
2022/07/21 04:17:53;;;;;;;43.58;29.55;;;31.30;99.90;;;;;;5055265;28;20025;-68
2022/07/21 04:20:21;;;;;;;55.60;33.08;;;31.30;99.90;;;;;;5054953;28;20025;-68
2022/07/21 04:22:49;;;;;;;45.72;30.77;;;31.30;99.90;;;;;;5055214;28;20021;-68
2022/07/21 04:25:17;;;;;;;39.25;26.02;;;31.30;99.90;;;;;;5055088;28;20033;-68
2022/07/21 04:27:44;;;;;;;36.75;23.98;;;31.20;99.90;;;;;;5054957;28;20025;-68
2022/07/21 04:30:15;;;;;;;31.98;22.45;;;31.20;99.90;;;;;;5055093;28;20029;-69
2022/07/21 04:32:42;;;;;;;32.15;20.70;;;31.20;99.90;;;;;;5055070;28;20386;-69
2022/07/21 04:35:10;;;;;;;37.72;22.25;;;31.20;99.90;;;;;;5054574;28;20032;-69
2022/07/21 04:37:37;;;;;;;30.67;22.48;;;31.30;99.90;;;;;;5054936;28;20098;-69
2022/07/21 04:40:07;;;;;;;34.58;21.55;;;31.20;99.90;;;;;;5054838;28;20017;-68
2022/07/21 04:42:34;;;;;;;32.80;23.08;;;31.20;99.90;;;;;;5054600;28;20025;-68
2022/07/21 04:45:01;;;;;;;29.13;22.77;;;31.30;99.90;;;;;;5054827;28;20049;-70
2022/07/21 04:47:27;;;;;;;36.78;23.48;;;31.20;99.90;;;;;;5054663;28;20029;-70
2022/07/21 04:49:54;;;;;;;34.22;24.30;;;31.30;99.90;;;;;;5054526;28;20032;-70
2022/07/21 04:52:20;;;;;;;44.42;23.95;;;31.40;99.90;;;;;;5052629;28;20032;-71
2022/07/21 04:54:47;;;;;;;36.88;24.95;;;31.40;99.90;;;;;;5040344;28;20025;-68
2022/07/21 04:57:14;;;;;;;41.28;25.42;;;31.40;99.90;;;;;;5045380;28;20436;-68
2022/07/21 04:59:41;;;;;;;31.88;23.88;;;31.40;99.90;;;;;;5054204;28;20043;-70
2022/07/21 05:02:07;;;;;;;34.38;22.77;;;31.50;99.90;;;;;;5044834;28;20033;-72
2022/07/21 05:04:34;;;;;;;29.55;20.70;;;31.50;99.90;;;;;;5036158;28;20029;-71
2022/07/21 05:07:00;;;;;;;30.70;18.95;;;31.60;99.90;;;;;;5033679;28;20042;-70
2022/07/21 05:09:27;;;;;;;28.42;17.90;;;31.60;99.90;;;;;;5032399;28;20454;-69
2022/07/21 05:11:54;;;;;;;29.23;19.23;;;31.70;99.90;;;;;;5033573;28;20025;-70
2022/07/21 05:14:20;;;;;;;27.60;19.63;;;31.60;99.90;;;;;;5033644;28;20013;-66
2022/07/21 05:16:47;;;;;;;28.67;20.75;;;31.70;99.90;;;;;;5033728;28;20029;-67
2022/07/21 05:19:13;;;;;;;31.88;20.35;;;31.60;99.90;;;;;;5033469;28;20014;-68
2022/07/21 05:21:40;;;;;;;39.70;20.95;;;31.70;99.90;;;;;;5031121;28;20022;-68
2022/07/21 05:24:07;;;;;;;29.75;20.23;;;31.70;99.90;;;;;;5034397;28;20055;-68
2022/07/21 05:26:33;;;;;;;25.85;19.85;;;31.70;99.90;;;;;;5033860;28;20032;-69
2022/07/21 05:29:00;;;;;;;26.08;18.77;;;31.70;99.90;;;;;;5034173;28;20101;-69
2022/07/21 05:31:26;;;;;;;22.85;18.80;;;31.70;99.90;;;;;;5033009;28;20029;-64
2022/07/21 05:33:53;;;;;;;26.92;17.55;;;31.60;99.90;;;;;;5033824;28;20053;-67
2022/07/21 05:36:19;;;;;;;31.55;18.50;;;31.60;99.90;;;;;;5033749;28;20115;-67
2022/07/21 05:38:47;;;;;;;22.50;17.88;;;31.60;99.90;;;;;;5033845;28;20030;-66
2022/07/21 05:41:14;;;;;;;27.63;17.92;;;31.60;99.90;;;;;;5035153;28;20017;-67
2022/07/21 05:43:40;;;;;;;23.38;16.70;;;31.70;99.90;;;;;;5041449;28;20018;-66
2022/07/21 05:48:37;;;;;;;26.00;18.52;;;31.80;99.90;;;;;;5040746;28;20052;-65
2022/07/21 05:51:04;;;;;;;31.40;18.25;;;31.90;99.90;;;;;;5034023;28;20029;-65
2022/07/21 05:53:30;;;;;;;28.67;17.45;;;31.90;99.90;;;;;;5034044;28;20045;-64
2022/07/21 05:55:58;;;;;;;23.50;17.95;;;32.00;99.90;;;;;;5036433;28;20232;-68
2022/07/21 05:58:24;;;;;;;31.58;19.58;;;32.00;99.90;;;;;;5039796;28;20620;-65
2022/07/21 06:03:21;;;;;;;30.25;18.73;;;32.00;99.90;;;;;;5044195;28;20044;-68
2022/07/21 06:05:47;;;;;;;27.13;20.00;;;32.10;99.90;;;;;;5041770;28;20175;-68
2022/07/21 06:08:14;;;;;;;24.90;17.85;;;32.10;99.90;;;;;;5034860;28;20021;-66
2022/07/21 06:10:40;;;;;;;23.40;16.00;;;32.10;99.50;;;;;;5035097;28;20409;-67
2022/07/21 06:13:07;;;;;;;20.73;14.88;;;32.10;98.30;;;;;;5034747;28;20370;-65
2022/07/21 06:15:33;;;;;;;21.17;15.73;;;32.00;97.70;;;;;;5040895;28;20545;-66
2022/07/21 06:18:00;;;;;;;21.05;15.07;;;32.00;98.40;;;;;;5039823;28;20075;-66
2022/07/21 06:20:26;;;;;;;20.17;15.27;;;32.20;97.90;;;;;;5042352;28;20086;-66
2022/07/21 06:22:53;;;;;;;22.70;16.17;;;32.40;98.70;;;;;;5042896;28;20481;-66
2022/07/21 06:25:20;;;;;;;24.08;17.35;;;32.40;98.40;;;;;;5040879;28;20021;-68
2022/07/21 06:27:47;;;;;;;21.85;16.73;;;32.60;98.50;;;;;;5041705;28;20020;-67
2022/07/21 06:30:13;;;;;;;26.73;17.85;;;32.60;98.50;;;;;;5036509;28;20029;-66
2022/07/21 06:32:40;;;;;;;24.92;16.95;;;32.70;98.20;;;;;;5033167;28;20033;-66
2022/07/21 06:35:07;;;;;;;28.75;16.85;;;32.70;98.00;;;;;;5032672;28;20021;-66
2022/07/21 06:37:34;;;;;;;25.70;17.98;;;32.60;97.90;;;;;;5032708;28;20478;-66
2022/07/21 06:40:00;;;;;;;29.85;17.50;;;32.50;98.00;;;;;;5033165;28;20042;-66
2022/07/21 06:42:27;;;;;;;25.52;18.08;;;32.50;97.40;;;;;;5034161;28;20013;-66
2022/07/21 06:44:53;;;;;;;33.10;18.73;;;32.40;97.70;;;;;;5037375;28;20497;-67
2022/07/21 06:47:20;;;;;;;32.38;19.45;;;32.20;98.20;;;;;;5037106;28;20056;-67
2022/07/21 06:49:47;;;;;;;33.95;20.50;;;31.90;99.40;;;;;;5037119;28;20056;-67
2022/07/21 06:52:13;;;;;;;32.05;20.67;;;31.70;99.90;;;;;;5037098;28;20072;-70
2022/07/21 06:54:40;;;;;;;33.88;20.23;;;31.40;99.90;;;;;;5037263;28;20025;-68
2022/07/21 06:57:07;;;;;;;35.67;23.25;;;31.20;99.90;;;;;;5037835;28;20014;-69
2022/07/21 06:59:33;;;;;;;36.20;20.70;;;31.00;99.90;;;;;;5037777;28;20029;-68
2022/07/21 07:02:00;;;;;;;30.02;19.13;;;30.80;99.90;;;;;;5037695;28;20026;-69
2022/07/21 07:04:27;;;;;;;27.35;19.55;;;30.60;99.90;;;;;;5059846;22;20057;-70
2022/07/21 07:06:55;;;;;;;31.02;19.75;;;30.60;99.90;;;;;;5057527;28;20027;-68
2022/07/21 07:09:22;;;;;;;31.77;19.80;;;30.60;99.90;;;;;;5057552;28;20083;-67
2022/07/21 07:11:52;;;;;;;32.60;21.40;;;30.80;99.90;;;;;;5056551;28;20021;-67
2022/07/21 07:14:19;;;;;;;31.95;23.05;;;30.90;99.90;;;;;;5056789;28;20021;-68
2022/07/21 07:16:46;;;;;;;38.58;24.00;;;30.90;99.90;;;;;;5056620;28;20035;-68
2022/07/21 07:19:12;;;;;;;32.42;23.48;;;30.80;99.90;;;;;;5053554;28;20017;-68
2022/07/21 07:21:39;;;;;;;32.03;23.52;;;30.90;99.90;;;;;;5045053;28;20021;-67
2022/07/21 07:24:06;;;;;;;32.08;21.25;;;31.00;99.90;;;;;;5044892;28;20016;-67
2022/07/21 07:26:33;;;;;;;28.48;22.73;;;31.10;99.90;;;;;;5046108;28;20078;-69
2022/07/21 07:28:59;;;;;;;31.42;21.30;;;31.10;99.90;;;;;;5045879;28;20036;-67
2022/07/21 07:31:26;;;;;;;33.65;21.92;;;31.20;99.90;;;;;;5050081;28;20029;-67
2022/07/21 07:33:53;;;;;;;26.27;18.27;;;31.20;99.90;;;;;;5051404;28;20021;-67
2022/07/21 07:36:19;;;;;;;24.92;18.23;;;31.20;99.90;;;;;;5051359;28;20460;-68
2022/07/21 07:38:47;;;;;;;26.75;17.55;;;31.20;99.90;;;;;;5051107;28;20466;-68
2022/07/21 07:41:14;;;;;;;23.95;17.67;;;31.20;99.90;;;;;;5051018;28;20021;-70
2022/07/21 07:43:41;;;;;;;26.10;18.38;;;31.30;99.90;;;;;;5050899;28;20022;-69
2022/07/21 07:46:10;;;;;;;30.02;20.15;;;31.30;99.90;;;;;;5051107;28;20055;-69
2022/07/21 07:48:37;;;;;;;25.00;18.23;;;31.40;99.90;;;;;;5050937;28;20029;-69
2022/07/21 07:51:04;;;;;;;27.45;18.15;;;31.40;99.90;;;;;;5050447;28;20384;-69
2022/07/21 07:53:31;;;;;;;23.38;16.92;;;31.40;99.90;;;;;;5050094;28;20017;-70
2022/07/21 07:55:57;;;;;;;24.60;16.23;;;31.40;99.90;;;;;;5050639;28;20025;-70
2022/07/21 07:58:24;;;;;;;30.52;14.40;;;31.50;99.90;;;;;;5044028;28;20501;-69
2022/07/21 08:00:51;;;;;;;29.35;14.98;;;31.50;99.90;;;;;;5038283;28;20024;-69
2022/07/21 08:03:17;;;;;;;19.42;14.10;;;31.70;99.90;;;;;;5040009;28;20786;-68
2022/07/21 08:05:44;;;;;;;19.80;14.57;;;31.80;99.90;;;;;;5039137;28;20045;-67
2022/07/21 08:08:10;;;;;;;25.30;15.82;;;31.80;99.90;;;;;;5038937;28;20045;-67
2022/07/21 08:10:37;;;;;;;22.95;14.57;;;32.00;99.90;;;;;;5039605;28;20146;-67
2022/07/21 08:13:04;;;;;;;22.00;13.68;;;32.10;99.90;;;;;;5039143;28;20017;-67
2022/07/21 08:15:30;;;;;;;23.88;14.52;;;32.10;99.90;;;;;;5039108;28;20067;-69
2022/07/21 08:17:57;;;;;;;22.08;12.65;;;32.10;99.90;;;;;;5040030;28;20028;-68
2022/07/21 08:20:24;;;;;;;17.67;11.70;;;32.00;99.90;;;;;;5039391;28;20014;-69
2022/07/21 08:22:50;;;;;;;13.45;9.63;;;31.90;99.80;;;;;;5039431;28;20111;-69
2022/07/21 08:25:17;;;;;;;20.52;10.23;;;31.80;98.50;;;;;;5039699;28;20017;-67
2022/07/21 08:27:43;;;;;;;17.23;10.20;;;31.70;99.00;;;;;;5039193;28;20060;-67
2022/07/21 08:30:10;;;;;;;19.08;10.77;;;31.80;98.50;;;;;;5039718;28;20359;-68
2022/07/21 08:32:37;;;;;;;18.48;13.32;;;31.90;98.70;;;;;;5046216;28;20498;-68
2022/07/21 08:35:08;;;;;;;14.68;10.20;;;32.00;99.20;;;;;;5053067;28;20028;-68
2022/07/21 08:37:36;;;;;;;19.30;13.98;;;32.00;98.00;;;;;;5049376;28;20025;-69
2022/07/21 08:40:04;;;;;;;16.85;10.65;;;31.90;97.70;;;;;;5046780;28;20548;-70
2022/07/21 08:42:31;;;;;;;20.00;13.38;;;31.80;98.10;;;;;;5052011;28;20470;-68
2022/07/21 08:44:57;;;;;;;22.25;13.80;;;31.80;98.00;;;;;;5050799;28;20025;-68
2022/07/21 08:47:26;;;;;;;20.67;13.15;;;31.70;97.80;;;;;;5040347;28;20053;-69
2022/07/21 08:49:53;;;;;;;30.95;16.83;;;31.60;98.50;;;;;;5035329;28;20045;-67
2022/07/21 08:52:20;;;;;;;18.10;10.23;;;31.60;98.50;;;;;;5035243;28;20029;-67
2022/07/21 08:54:47;;;;;;;21.95;11.20;;;31.60;98.00;;;;;;5040326;28;20029;-68
2022/07/21 08:57:13;;;;;;;20.40;11.30;;;31.50;98.40;;;;;;5054917;28;20497;-67
2022/07/21 08:59:40;;;;;;;18.90;10.35;;;31.50;98.50;;;;;;5055233;28;20028;-66
2022/07/21 09:02:24;;;;;;;17.42;11.32;;;31.40;98.90;;;;;;5054840;28;20021;-70
2022/07/21 09:04:52;;;;;;;21.33;12.38;;;31.40;98.90;;;;;;5054026;28;20497;-69
2022/07/21 09:07:19;;;;;;;18.92;12.30;;;31.40;99.40;;;;;;5054835;28;20108;-67
2022/07/21 09:09:56;;;;;;;27.90;13.10;;;31.30;99.60;;;;;;5054186;28;20412;-67
2022/07/21 09:12:23;;;;;;;18.75;11.05;;;31.30;99.90;;;;;;5043104;28;20025;-71
2022/07/21 09:14:49;;;;;;;18.55;10.65;;;31.30;99.90;;;;;;5034912;28;20026;-68
2022/07/21 09:17:17;;;;;;;14.23;10.10;;;31.20;99.90;;;;;;5034095;28;20021;-67
2022/07/21 09:19:48;;;;;;;20.80;10.90;;;31.20;99.90;;;;;;5033993;28;20112;-67
2022/07/21 09:22:18;;;;;;;19.10;11.73;;;31.20;99.90;;;;;;5034367;28;20025;-68
2022/07/21 09:24:49;;;;;;;20.45;10.25;;;31.10;99.90;;;;;;5034263;28;20087;-67
2022/07/21 09:27:18;;;;;;;14.95;9.65;;;31.10;99.90;;;;;;5034415;28;20020;-67
2022/07/21 09:29:48;;;;;;;17.85;10.98;;;31.20;99.90;;;;;;5034067;28;20045;-68
2022/07/21 09:32:17;;;;;;;17.90;9.63;;;31.20;99.90;;;;;;5034325;28;20025;-67
2022/07/21 09:34:45;;;;;;;13.60;8.30;;;31.20;99.90;;;;;;5034107;28;20014;-68
2022/07/21 09:37:12;;;;;;;24.70;13.10;;;31.10;99.90;;;;;;5034056;28;20029;-68
2022/07/21 09:39:43;;;;;;;19.88;8.55;;;31.00;99.90;;;;;;5034074;28;20021;-67
2022/07/21 09:42:13;;;;;;;21.00;8.40;;;31.00;99.90;;;;;;5032915;28;20398;-68
2022/07/21 09:44:43;;;;;;;23.33;12.02;;;30.90;99.90;;;;;;5034017;28;20047;-67
2022/07/21 09:47:13;;;;;;;36.75;22.92;;;30.90;99.90;;;;;;5033838;28;20089;-68
2022/07/21 09:49:40;;;;;;;38.13;26.35;;;30.90;99.90;;;;;;5036284;28;20021;-68
2022/07/21 09:52:12;;;;;;;35.42;14.77;;;31.00;99.90;;;;;;5042608;28;20026;-67
2022/07/21 09:54:42;;;;;;;29.85;12.88;;;30.90;99.90;;;;;;5033720;28;20030;-69
2022/07/21 09:57:10;;;;;;;24.08;14.00;;;31.00;99.90;;;;;;5033730;28;20029;-68
2022/07/21 09:59:38;;;;;;;40.67;23.60;;;30.80;99.90;;;;;;5033836;28;20552;-70
2022/07/21 10:02:05;;;;;;;46.97;29.33;;;30.80;99.90;;;;;;5033416;28;20021;-67
2022/07/21 10:04:34;;;;;;;55.85;27.70;;;30.80;99.90;;;;;;5044282;28;20037;-68
2022/07/21 10:07:02;;;;;;;50.22;27.50;;;30.80;99.90;;;;;;5043918;28;20021;-70
2022/07/21 10:09:28;;;;;;;46.58;27.15;;;30.70;99.90;;;;;;5043747;28;20079;-71
2022/07/21 10:11:55;;;;;;;87.68;51.85;;;30.80;99.90;;;;;;5042982;28;20067;-70
2022/07/21 10:14:22;;;;;;;37.47;21.08;;;30.80;99.90;;;;;;5043911;28;20030;-70
2022/07/21 10:16:48;;;;;;;190.45;103.70;;;30.80;99.90;;;;;;5043138;28;20421;-68
2022/07/21 10:19:23;;;;;;;63.72;35.10;;;30.80;99.90;;;;;;5042443;28;20060;-69
2022/07/21 10:22:00;;;;;;;98.88;56.95;;;30.70;99.90;;;;;;5042055;28;20382;-70
2022/07/21 10:24:29;;;;;;;65.05;39.83;;;30.70;99.90;;;;;;5041447;28;20026;-69
2022/07/21 10:27:10;;;;;;;65.75;40.13;;;30.70;99.90;;;;;;5043038;28;20025;-69
2022/07/21 10:29:41;;;;;;;49.38;30.05;;;30.70;99.90;;;;;;5045982;28;20624;-70
2022/07/21 10:32:11;;;;;;;57.58;36.70;;;30.70;99.90;;;;;;5039764;28;20087;-70
2022/07/21 10:34:38;;;;;;;41.88;23.35;;;30.70;99.90;;;;;;5039125;28;20029;-69
2022/07/21 10:37:04;;;;;;;48.10;25.70;;;30.60;99.90;;;;;;5043028;28;20021;-68
2022/07/21 10:39:34;;;;;;;40.95;22.38;;;30.50;99.90;;;;;;5045625;28;20134;-68
2022/07/21 10:42:15;;;;;;;41.15;22.70;;;30.50;99.90;;;;;;5040117;28;20036;-69
2022/07/21 10:44:44;;;;;;;40.63;25.88;;;30.50;99.90;;;;;;5039154;28;20051;-68
2022/07/21 10:47:12;;;;;;;64.10;39.35;;;30.50;99.90;;;;;;5038155;28;20053;-70
2022/07/21 10:49:43;;;;;;;58.97;33.95;;;30.50;99.90;;;;;;5042983;28;20033;-70
2022/07/21 10:52:14;;;;;;;62.88;43.22;;;30.50;99.90;;;;;;5040020;28;20022;-70
2022/07/21 10:55:03;;;;;;;58.55;38.17;;;30.50;99.90;;;;;;5047168;28;20539;-69
2022/07/21 10:57:29;;;;;;;58.50;36.65;;;30.50;99.90;;;;;;5048602;28;20112;-70
2022/07/21 11:00:01;;;;;;;66.03;40.83;;;30.50;99.90;;;;;;5037773;28;20501;-67
2022/07/21 11:02:29;;;;;;;56.05;31.20;;;30.50;99.90;;;;;;5047133;28;20029;-67
2022/07/21 11:05:01;;;;;;;53.97;29.77;;;30.40;99.90;;;;;;5037701;28;20068;-66
2022/07/21 11:07:49;;;;;;;44.70;24.15;;;30.40;99.90;;;;;;5035730;28;20037;-67
2022/07/21 11:10:19;;;;;;;34.40;22.02;;;30.40;99.90;;;;;;5037728;28;20021;-66
2022/07/21 11:12:50;;;;;;;36.67;24.13;;;30.40;99.90;;;;;;5037035;28;20025;-68
2022/07/21 11:15:22;;;;;;;43.42;27.08;;;30.40;99.90;;;;;;5039286;28;20049;-69
2022/07/21 11:17:49;;;;;;;79.93;43.13;;;30.40;99.90;;;;;;5042975;28;20030;-70
2022/07/21 11:20:15;;;;;;;72.35;43.13;;;30.40;99.90;;;;;;5039167;28;20017;-69
2022/07/21 11:22:45;;;;;;;64.63;40.85;;;30.30;99.90;;;;;;5038992;28;20355;-68
2022/07/21 11:25:13;;;;;;;66.55;35.22;;;30.30;99.90;;;;;;5045098;28;20021;-68
2022/07/21 11:27:40;;;;;;;59.85;35.25;;;30.10;99.90;;;;;;5045468;28;20048;-69
2022/07/21 11:30:09;;;;;;;54.45;31.77;;;30.10;99.90;;;;;;5045863;28;20022;-69
2022/07/21 11:32:37;;;;;;;62.90;31.30;;;30.20;99.90;;;;;;5046687;28;20013;-68
2022/07/21 11:35:05;;;;;;;58.67;33.38;;;30.10;99.90;;;;;;5046890;28;20026;-69
2022/07/21 11:37:35;;;;;;;65.90;35.90;;;30.00;99.90;;;;;;5045457;28;20017;-68
2022/07/21 11:40:03;;;;;;;69.55;35.72;;;29.90;99.90;;;;;;5049612;28;20025;-68
2022/07/21 11:42:30;;;;;;;380.45;310.05;;;29.90;99.90;;;;;;5045077;28;20025;-68
2022/07/21 11:44:57;;;;;;;66.97;39.05;;;29.90;99.90;;;;;;5045795;28;20086;-68
2022/07/21 11:47:27;;;;;;;72.45;39.40;;;29.90;99.90;;;;;;5045728;28;20118;-68
2022/07/21 11:49:57;;;;;;;58.28;33.85;;;29.80;99.90;;;;;;5047793;28;20036;-65
2022/07/21 11:52:31;;;;;;;71.22;31.30;;;29.80;99.90;;;;;;5045927;28;20033;-66
2022/07/21 11:54:59;;;;;;;55.08;30.80;;;29.80;99.90;;;;;;5040473;28;20036;-66
2022/07/21 11:57:27;;;;;;;71.07;36.53;;;29.80;99.90;;;;;;5043409;28;20086;-67
2022/07/21 11:59:55;;;;;;;64.43;34.80;;;29.80;99.90;;;;;;5053778;28;20071;-67
2022/07/21 12:02:25;;;;;;;52.80;31.40;;;29.70;99.90;;;;;;5042533;28;20063;-66
2022/07/21 12:04:55;;;;;;;68.68;38.20;;;29.80;99.90;;;;;;5048861;28;20041;-66
2022/07/21 12:07:25;;;;;;;58.58;31.67;;;29.70;99.90;;;;;;5041314;28;20076;-66
2022/07/21 12:09:55;;;;;;;53.88;30.17;;;29.80;99.90;;;;;;5037327;28;20045;-66
2022/07/21 12:12:27;;;;;;;51.08;29.48;;;29.80;99.90;;;;;;5049579;28;20458;-67
2022/07/21 12:14:53;;;;;;;59.45;32.97;;;29.70;99.90;;;;;;5046380;28;20029;-67
2022/07/21 12:17:25;;;;;;;125.43;75.55;;;29.60;99.90;;;;;;5055263;28;20470;-68
2022/07/21 12:19:51;;;;;;;111.93;63.17;;;29.60;99.90;;;;;;5052760;28;20021;-67
2022/07/21 12:22:33;;;;;;;50.83;29.45;;;29.60;99.90;;;;;;5043969;28;20052;-66
2022/07/21 12:24:59;;;;;;;48.55;28.90;;;29.60;99.90;;;;;;5043884;28;20462;-66
2022/07/21 12:27:27;;;;;;;42.97;26.77;;;29.60;99.90;;;;;;5043484;28;20024;-67
2022/07/21 12:29:53;;;;;;;100.22;65.57;;;29.50;99.90;;;;;;5043129;28;20024;-67
2022/07/21 12:32:25;;;;;;;88.68;49.33;;;29.50;99.90;;;;;;5044224;28;20734;-66
2022/07/21 12:34:54;;;;;;;48.35;28.80;;;29.50;99.90;;;;;;5043656;28;20075;-66
2022/07/21 12:37:20;;;;;;;64.63;34.95;;;29.50;99.90;;;;;;5043461;28;20108;-67